createdAt,value
2022-11-26T00:02:18.994Z,6.72
2022-11-26T00:06:32.631Z,6.73
2022-11-26T00:10:37.232Z,6.71
2022-11-26T00:14:40.096Z,6.68
2022-11-26T00:18:43.391Z,6.66
2022-11-26T00:22:49.779Z,6.66
2022-11-26T00:26:54.272Z,6.64
2022-11-26T00:30:59.503Z,6.60
2022-11-26T00:35:02.302Z,6.57
2022-11-26T00:39:08.419Z,6.56
2022-11-26T00:43:14.833Z,6.55
2022-11-26T00:47:18.982Z,6.50
2022-11-26T00:51:24.309Z,6.46
2022-11-26T00:55:31.123Z,6.44
2022-11-26T00:59:35.160Z,6.44
2022-11-26T01:03:37.907Z,6.43
2022-11-26T01:07:41.511Z,6.42
2022-11-26T01:11:46.439Z,6.41
2022-11-26T01:15:51.980Z,6.39
2022-11-26T01:19:54.735Z,6.38
2022-11-26T01:23:57.680Z,6.37
2022-11-26T01:28:00.456Z,6.34
2022-11-26T01:32:04.923Z,6.33
2022-11-26T01:36:20.976Z,6.32
2022-11-26T01:40:33.814Z,6.31
2022-11-26T01:44:38.892Z,6.26
2022-11-26T01:48:43.303Z,6.26
2022-11-26T01:52:46.010Z,6.24
2022-11-26T01:56:51.387Z,6.22
2022-11-26T02:00:54.286Z,6.19
2022-11-26T02:05:07.805Z,6.16
2022-11-26T02:09:11.865Z,6.12
2022-11-26T02:13:14.698Z,6.11
2022-11-26T02:17:26.701Z,6.07
2022-11-26T02:21:37.046Z,6.05
2022-11-26T02:26:11.922Z,5.99
2022-11-26T02:30:17.661Z,5.92
2022-11-26T02:34:36.952Z,5.86
2022-11-26T02:38:40.817Z,5.79
2022-11-26T02:42:43.505Z,5.70
2022-11-26T02:46:50.704Z,5.64
2022-11-26T02:50:57.864Z,5.57
2022-11-26T02:55:02.918Z,5.53
2022-11-26T02:59:05.729Z,5.50
2022-11-26T03:03:22.862Z,5.45
2022-11-26T03:07:26.770Z,5.40
2022-11-26T03:11:29.637Z,5.35
2022-11-26T03:15:32.432Z,5.31
2022-11-26T03:19:36.484Z,5.27
2022-11-26T03:23:39.236Z,5.26
2022-11-26T03:27:41.996Z,5.24
2022-11-26T03:31:44.835Z,5.25
2022-11-26T03:35:50.053Z,5.25
2022-11-26T03:39:52.830Z,5.22
2022-11-26T03:43:55.652Z,5.19
2022-11-26T03:47:58.464Z,5.17
2022-11-26T03:52:02.720Z,5.19
2022-11-26T03:56:06.011Z,5.19
2022-11-26T04:00:10.074Z,5.22
2022-11-26T04:04:12.853Z,5.23
2022-11-26T04:08:16.927Z,5.23
2022-11-26T04:12:19.651Z,5.20
2022-11-26T04:16:22.458Z,5.20
2022-11-26T04:20:25.271Z,5.17
2022-11-26T04:24:29.612Z,5.16
2022-11-26T04:28:32.694Z,5.15
2022-11-26T04:32:36.809Z,5.15
2022-11-26T04:36:40.158Z,5.12
2022-11-26T04:40:44.235Z,5.07
2022-11-26T04:44:46.977Z,5.09
2022-11-26T04:48:49.829Z,5.11
2022-11-26T04:52:52.606Z,5.12
2022-11-26T04:56:56.784Z,5.13
2022-11-26T05:00:59.587Z,5.16
2022-11-26T05:05:02.376Z,5.18
2022-11-26T05:09:05.259Z,5.18
2022-11-26T05:13:09.517Z,5.20
2022-11-26T05:17:12.235Z,5.19
2022-11-26T05:21:15.022Z,5.17
2022-11-26T05:25:17.938Z,5.17
2022-11-26T05:29:22.112Z,5.19
2022-11-26T05:33:24.882Z,5.22
2022-11-26T05:37:27.664Z,5.22
2022-11-26T05:41:30.406Z,5.23
2022-11-26T05:45:34.602Z,5.25
2022-11-26T05:49:37.387Z,5.31
2022-11-26T05:53:40.115Z,5.35
2022-11-26T05:57:42.882Z,5.36
2022-11-26T06:01:47.230Z,5.42
2022-11-26T06:05:50.035Z,5.42
2022-11-26T06:09:52.805Z,5.38
2022-11-26T06:13:55.554Z,5.42
2022-11-26T06:17:59.620Z,5.48
2022-11-26T06:22:02.377Z,5.54
2022-11-26T06:26:10.582Z,5.52
2022-11-26T06:30:15.082Z,5.53
2022-11-26T06:34:19.212Z,5.54
2022-11-26T06:38:21.929Z,5.52
2022-11-26T06:42:24.646Z,5.54
2022-11-26T06:46:27.411Z,5.56
2022-11-26T06:50:31.462Z,5.57
2022-11-26T06:54:34.454Z,5.55
2022-11-26T06:58:37.434Z,5.56
2022-11-26T07:02:40.436Z,5.57
2022-11-26T07:06:45.878Z,5.54
2022-11-26T07:10:49.319Z,5.57
2022-11-26T07:14:52.171Z,5.52
2022-11-26T07:19:02.144Z,5.48
2022-11-26T07:23:06.869Z,5.50
2022-11-26T07:27:10.293Z,5.47
2022-11-26T07:31:17.143Z,5.48
2022-11-26T07:35:20.145Z,5.48
2022-11-26T07:39:24.248Z,5.53
2022-11-26T07:43:26.955Z,5.60
2022-11-26T07:47:29.680Z,5.61
2022-11-26T07:51:36.649Z,5.66
2022-11-26T07:55:42.359Z,5.70
2022-11-26T07:59:45.057Z,5.69
2022-11-26T08:03:50.006Z,5.75
2022-11-26T08:07:52.845Z,5.80
2022-11-26T08:11:56.932Z,5.83
2022-11-26T08:15:59.681Z,5.92
2022-11-26T08:20:02.386Z,5.90
2022-11-26T08:24:05.873Z,5.91
2022-11-26T08:28:09.934Z,5.89
2022-11-26T08:32:12.747Z,5.91
2022-11-26T08:36:15.455Z,5.90
2022-11-26T08:40:18.334Z,6.01
2022-11-26T08:44:22.692Z,6.12
2022-11-26T08:48:31.722Z,6.14
2022-11-26T08:52:34.725Z,6.22
2022-11-26T08:56:37.499Z,6.24
2022-11-26T09:00:41.771Z,6.31
2022-11-26T09:04:44.485Z,6.36
2022-11-26T09:09:01.232Z,6.39
2022-11-26T09:13:04.026Z,6.44
2022-11-26T09:17:09.986Z,6.48
2022-11-26T09:21:12.755Z,6.55
2022-11-26T09:25:16.117Z,6.60
2022-11-26T09:29:21.383Z,6.67
2022-11-26T09:33:25.557Z,6.71
2022-11-26T09:37:28.295Z,6.80
2022-11-26T09:41:40.574Z,6.82
2022-11-26T09:45:51.365Z,6.89
2022-11-26T09:50:07.614Z,7.02
2022-11-26T09:54:16.455Z,7.11
2022-11-26T09:58:26.919Z,7.11
2022-11-26T10:02:30.360Z,7.17
2022-11-26T10:06:43.623Z,7.20
2022-11-26T10:10:53.104Z,7.24
2022-11-26T10:15:02.650Z,7.34
2022-11-26T10:19:13.468Z,7.35
2022-11-26T10:23:24.083Z,7.36
2022-11-26T10:27:31.487Z,7.47
2022-11-26T10:31:35.271Z,7.54
2022-11-26T10:35:43.815Z,7.52
2022-11-26T10:39:47.961Z,7.59
2022-11-26T10:43:50.847Z,7.65
2022-11-26T10:47:53.554Z,7.67
2022-11-26T10:51:59.827Z,7.74
2022-11-26T10:56:06.969Z,7.81
2022-11-26T11:00:38.152Z,7.90
2022-11-26T11:04:45.988Z,7.95
2022-11-26T11:08:50.099Z,8.02
2022-11-26T11:13:10.338Z,8.09
2022-11-26T11:17:35.485Z,8.21
2022-11-26T11:21:45.132Z,8.26
2022-11-26T11:26:00.187Z,8.35
2022-11-26T11:30:05.811Z,8.44
2022-11-26T11:34:22.009Z,8.51
2022-11-26T11:38:27.520Z,8.63
2022-11-26T11:42:32.228Z,8.71
2022-11-26T11:47:18.646Z,8.82
2022-11-26T11:51:31.982Z,8.88
2022-11-26T11:55:51.467Z,8.96
2022-11-26T12:00:13.531Z,9.03
2022-11-26T12:04:26.753Z,9.08
2022-11-26T12:08:42.209Z,9.13
2022-11-26T12:12:48.668Z,9.23
2022-11-26T12:16:58.542Z,9.29
2022-11-26T12:21:09.277Z,9.31
2022-11-26T12:25:21.890Z,9.36
2022-11-26T12:29:32.006Z,9.37
2022-11-26T12:33:41.326Z,9.38
2022-11-26T12:37:46.675Z,9.34
2022-11-26T12:41:56.149Z,9.37
2022-11-26T12:46:03.348Z,9.40
2022-11-26T12:50:21.633Z,9.37
2022-11-26T12:54:32.435Z,9.41
2022-11-26T12:58:45.583Z,9.45
2022-11-26T13:02:51.770Z,9.52
2022-11-26T13:07:14.913Z,9.57
2022-11-26T13:11:29.682Z,9.56
2022-11-26T13:15:39.440Z,9.64
2022-11-26T13:19:46.051Z,9.65
2022-11-26T13:24:07.237Z,9.67
2022-11-26T13:28:22.838Z,9.67
2022-11-26T13:32:46.942Z,9.68
2022-11-26T13:37:15.845Z,9.65
2022-11-26T13:41:34.291Z,9.67
2022-11-26T13:45:50.580Z,9.65
2022-11-26T13:50:00.468Z,9.65
2022-11-26T13:54:09.730Z,9.66
2022-11-26T13:58:20.472Z,9.67
2022-11-26T14:02:44.799Z,9.64
2022-11-26T14:07:23.227Z,9.66
2022-11-26T14:11:59.377Z,9.60
2022-11-26T14:16:05.090Z,9.63
2022-11-26T14:20:11.998Z,9.59
2022-11-26T14:24:55.205Z,9.51
2022-11-26T14:29:17.391Z,9.53
2022-11-26T14:33:28.185Z,9.50
2022-11-26T14:37:32.514Z,9.47
2022-11-26T14:41:36.475Z,9.45
2022-11-26T14:45:39.617Z,9.40
2022-11-26T14:49:46.928Z,9.41
2022-11-26T14:53:53.202Z,9.40
2022-11-26T14:57:59.613Z,9.38
2022-11-26T15:02:02.420Z,9.32
2022-11-26T15:06:05.793Z,9.29
2022-11-26T15:10:20.075Z,9.27
2022-11-26T15:14:29.440Z,9.23
2022-11-26T15:18:34.901Z,9.21
2022-11-26T15:22:39.772Z,9.22
2022-11-26T15:26:47.101Z,9.17
2022-11-26T15:30:58.629Z,9.11
2022-11-26T15:35:03.897Z,9.11
2022-11-26T15:39:08.346Z,9.08
2022-11-26T15:43:23.336Z,9.05
2022-11-26T15:47:29.989Z,9.04
2022-11-26T15:51:37.486Z,9.02
2022-11-26T15:55:40.393Z,9.02
2022-11-26T15:59:49.411Z,8.98
2022-11-26T16:03:53.667Z,8.92
2022-11-26T16:08:01.931Z,8.89
2022-11-26T16:12:05.127Z,8.92
2022-11-26T16:16:16.146Z,8.89
2022-11-26T16:20:22.694Z,8.84
2022-11-26T16:24:31.537Z,8.85
2022-11-26T16:28:34.390Z,8.87
2022-11-26T16:32:38.492Z,8.87
2022-11-26T16:36:43.732Z,8.86
2022-11-26T16:40:48.661Z,8.87
2022-11-26T16:44:51.625Z,8.84
2022-11-26T16:48:56.244Z,8.81
2022-11-26T16:52:59.128Z,8.81
2022-11-26T16:57:02.239Z,8.78
2022-11-26T17:01:05.332Z,8.76
2022-11-26T17:05:10.803Z,8.70
2022-11-26T17:09:18.609Z,8.68
2022-11-26T17:13:21.590Z,8.66
2022-11-26T17:17:29.051Z,8.61
2022-11-26T17:21:33.291Z,8.56
2022-11-26T17:25:36.406Z,8.53
2022-11-26T17:29:42.864Z,8.50
2022-11-26T17:33:45.883Z,8.45
2022-11-26T17:37:50.101Z,8.41
2022-11-26T17:41:53.102Z,8.39
2022-11-26T17:45:56.085Z,8.36
2022-11-26T17:49:58.846Z,8.33
2022-11-26T17:54:02.960Z,8.31
2022-11-26T17:58:05.682Z,8.29
2022-11-26T18:02:09.331Z,8.29
2022-11-26T18:06:16.415Z,8.22
2022-11-26T18:10:22.065Z,8.16
2022-11-26T18:14:24.826Z,8.11
2022-11-26T18:18:27.691Z,8.07
2022-11-26T18:22:30.653Z,8.01
2022-11-26T18:26:35.369Z,7.96
2022-11-26T18:30:38.363Z,7.91
2022-11-26T18:34:41.534Z,7.86
2022-11-26T18:38:45.736Z,7.80
2022-11-26T18:42:54.038Z,7.76
2022-11-26T18:46:56.808Z,7.72
2022-11-26T18:51:00.583Z,7.70
2022-11-26T18:55:04.751Z,7.66
2022-11-26T18:59:09.834Z,7.63
2022-11-26T19:03:13.526Z,7.61
2022-11-26T19:07:16.361Z,7.57
2022-11-26T19:11:21.002Z,7.57
2022-11-26T19:15:25.109Z,7.56
2022-11-26T19:19:28.177Z,7.56
2022-11-26T19:23:32.029Z,7.52
2022-11-26T19:27:35.114Z,7.45
2022-11-26T19:31:40.016Z,7.44
2022-11-26T19:35:42.778Z,7.39
2022-11-26T19:39:45.461Z,7.37
2022-11-26T19:43:48.458Z,7.33
2022-11-26T19:47:52.823Z,7.28
2022-11-26T19:51:55.653Z,7.23
2022-11-26T19:56:01.018Z,7.22
2022-11-26T20:00:05.116Z,7.20
2022-11-26T20:04:13.821Z,7.15
2022-11-26T20:08:16.704Z,7.14
2022-11-26T20:12:19.583Z,7.11
2022-11-26T20:16:24.373Z,7.12
2022-11-26T20:20:28.470Z,7.17
2022-11-26T20:24:31.199Z,7.16
2022-11-26T20:28:34.125Z,7.19
2022-11-26T20:32:37.428Z,7.20
2022-11-26T20:36:41.504Z,7.21
2022-11-26T20:40:45.030Z,7.25
2022-11-26T20:44:47.777Z,7.26
2022-11-26T20:48:50.591Z,7.25
2022-11-26T20:52:54.670Z,7.30
2022-11-26T20:56:57.715Z,7.35
2022-11-26T21:01:01.436Z,7.34
2022-11-26T21:05:04.325Z,7.34
2022-11-26T21:09:08.944Z,7.34
2022-11-26T21:13:14.544Z,7.34
2022-11-26T21:17:17.320Z,7.36
2022-11-26T21:21:20.106Z,7.37
2022-11-26T21:25:24.227Z,7.38
2022-11-26T21:29:26.952Z,7.44
2022-11-26T21:33:29.642Z,7.42
2022-11-26T21:37:32.468Z,7.41
2022-11-26T21:41:37.261Z,7.39
2022-11-26T21:45:40.002Z,7.41
2022-11-26T21:49:43.924Z,7.40
2022-11-26T21:53:47.336Z,7.37
2022-11-26T21:57:51.890Z,7.36
2022-11-26T22:01:54.617Z,7.34
2022-11-26T22:06:00.017Z,7.33
2022-11-26T22:10:02.922Z,7.31
2022-11-26T22:14:09.328Z,7.25
2022-11-26T22:18:12.090Z,7.27
2022-11-26T22:22:14.825Z,7.22
2022-11-26T22:26:18.339Z,7.17
2022-11-26T22:30:22.554Z,7.16
2022-11-26T22:34:27.253Z,7.11
2022-11-26T22:38:30.019Z,7.05
2022-11-26T22:42:32.752Z,7.00
2022-11-26T22:46:40.894Z,6.96
2022-11-26T22:50:51.315Z,6.89
2022-11-26T22:54:54.023Z,6.80
2022-11-26T22:58:59.126Z,6.76
2022-11-26T23:03:03.409Z,6.72
2022-11-26T23:07:06.347Z,6.64
2022-11-26T23:11:10.502Z,6.60
2022-11-26T23:15:13.219Z,6.51
2022-11-26T23:19:18.078Z,6.44
2022-11-26T23:23:20.811Z,6.39
2022-11-26T23:27:23.514Z,6.33
2022-11-26T23:31:28.657Z,6.29
2022-11-26T23:35:32.773Z,6.23
2022-11-26T23:39:35.555Z,6.20
2022-11-26T23:43:39.694Z,6.15
2022-11-26T23:47:42.440Z,6.14
2022-11-26T23:51:46.494Z,6.11
2022-11-26T23:55:49.291Z,6.05
2022-11-26T23:59:52.033Z,6.08
